createdAt,value
2023-04-13T00:00:35.258Z,6.94
2023-04-13T00:03:02.356Z,6.94
2023-04-13T00:05:29.070Z,6.93
2023-04-13T00:07:56.190Z,6.91
2023-04-13T00:10:23.978Z,6.87
2023-04-13T00:12:50.642Z,6.86
2023-04-13T00:15:21.442Z,6.82
2023-04-13T00:17:48.095Z,6.80
2023-04-13T00:20:14.804Z,6.79
2023-04-13T00:22:43.088Z,6.78
2023-04-13T00:25:11.761Z,6.74
2023-04-13T00:27:42.453Z,6.72
2023-04-13T00:30:11.456Z,6.73
2023-04-13T00:32:40.742Z,6.72
2023-04-13T00:35:08.541Z,6.70
2023-04-13T00:37:35.279Z,6.73
2023-04-13T00:40:02.212Z,6.72
2023-04-13T00:42:28.756Z,6.66
2023-04-13T00:44:55.399Z,6.72
2023-04-13T00:47:32.204Z,6.70
2023-04-13T00:50:01.269Z,6.69
2023-04-13T00:52:29.009Z,6.70
2023-04-13T00:54:57.694Z,6.71
2023-04-13T00:57:25.349Z,6.74
2023-04-13T00:59:52.769Z,6.72
2023-04-13T01:02:26.451Z,6.71
2023-04-13T01:04:55.734Z,6.69
2023-04-13T01:07:41.385Z,6.71
2023-04-13T01:10:32.394Z,6.68
2023-04-13T01:13:14.163Z,6.65
2023-04-13T01:16:10.448Z,6.61
2023-04-13T01:18:41.762Z,6.54
2023-04-13T01:21:14.540Z,6.57
2023-04-13T01:24:08.678Z,6.54
2023-04-13T01:26:43.848Z,6.50
2023-04-13T01:29:10.674Z,6.47
2023-04-13T01:31:37.822Z,6.46
2023-04-13T01:34:04.846Z,6.43
2023-04-13T01:36:33.624Z,6.40
2023-04-13T01:39:00.911Z,6.41
2023-04-13T01:41:29.949Z,6.43
2023-04-13T01:43:56.944Z,6.41
2023-04-13T01:46:30.957Z,6.42
2023-04-13T01:49:19.563Z,6.36
2023-04-13T01:52:08.358Z,6.41
2023-04-13T01:54:37.308Z,6.41
2023-04-13T01:57:04.324Z,6.36
2023-04-13T01:59:33.430Z,6.32
2023-04-13T02:02:00.031Z,6.29
2023-04-13T02:04:26.591Z,6.27
2023-04-13T02:06:53.275Z,6.25
2023-04-13T02:09:28.295Z,6.23
2023-04-13T02:11:55.352Z,6.20
2023-04-13T02:14:22.295Z,6.18
2023-04-13T02:16:49.171Z,6.19
2023-04-13T02:19:15.868Z,6.19
2023-04-13T02:21:42.294Z,6.20
2023-04-13T02:24:09.123Z,6.19
2023-04-13T02:26:37.572Z,6.20
2023-04-13T02:29:04.083Z,6.20
2023-04-13T02:31:31.726Z,6.19
2023-04-13T02:33:58.603Z,6.25
2023-04-13T02:36:25.387Z,6.23
2023-04-13T02:38:56.299Z,6.26
2023-04-13T02:41:28.530Z,6.27
2023-04-13T02:43:56.811Z,6.24
2023-04-13T02:46:25.807Z,6.24
2023-04-13T02:48:58.233Z,6.18
2023-04-13T02:51:27.956Z,6.21
2023-04-13T02:53:57.749Z,6.17
2023-04-13T02:56:25.387Z,6.15
2023-04-13T02:58:55.156Z,6.08
2023-04-13T03:01:24.969Z,6.04
2023-04-13T03:03:53.001Z,5.98
2023-04-13T03:06:24.151Z,5.93
2023-04-13T03:08:55.215Z,5.86
2023-04-13T03:11:23.575Z,5.81
2023-04-13T03:14:13.078Z,5.80
2023-04-13T03:16:40.292Z,5.78
2023-04-13T03:19:07.370Z,5.78
2023-04-13T03:21:36.073Z,5.78
2023-04-13T03:24:08.658Z,5.79
2023-04-13T03:26:36.483Z,5.73
2023-04-13T03:29:06.984Z,5.72
2023-04-13T03:31:38.938Z,5.71
2023-04-13T03:34:06.354Z,5.66
2023-04-13T03:36:32.838Z,5.59
2023-04-13T03:39:00.870Z,5.59
2023-04-13T03:41:32.639Z,5.57
2023-04-13T03:43:59.268Z,5.56
2023-04-13T03:46:27.238Z,5.56
2023-04-13T03:48:56.729Z,5.54
2023-04-13T03:51:27.757Z,5.50
2023-04-13T03:53:54.994Z,5.53
2023-04-13T03:56:24.688Z,5.53
2023-04-13T03:58:51.464Z,5.55
2023-04-13T04:01:23.438Z,5.57
2023-04-13T04:03:50.881Z,5.58
2023-04-13T04:06:18.122Z,5.56
2023-04-13T04:08:51.961Z,5.57
2023-04-13T04:11:41.397Z,5.55
2023-04-13T04:14:09.596Z,5.54
2023-04-13T04:16:37.432Z,5.57
2023-04-13T04:19:09.853Z,5.57
2023-04-13T04:21:36.314Z,5.52
2023-04-13T04:24:08.777Z,5.53
2023-04-13T04:26:38.110Z,5.47
2023-04-13T04:29:07.052Z,5.42
2023-04-13T04:31:37.544Z,5.38
2023-04-13T04:34:10.898Z,5.35
2023-04-13T04:36:41.735Z,5.32
2023-04-13T04:39:09.859Z,5.30
2023-04-13T04:41:44.724Z,5.27
2023-04-13T04:44:11.684Z,5.26
2023-04-13T04:46:41.629Z,5.25
2023-04-13T04:49:11.815Z,5.25
2023-04-13T04:51:39.177Z,5.27
2023-04-13T04:54:07.299Z,5.29
2023-04-13T04:56:33.905Z,5.29
2023-04-13T04:59:00.691Z,5.27
2023-04-13T05:01:38.844Z,5.18
2023-04-13T05:04:10.325Z,5.20
2023-04-13T05:06:41.135Z,5.20
2023-04-13T05:09:09.905Z,5.19
2023-04-13T05:11:39.493Z,5.15
2023-04-13T05:14:08.730Z,5.16
2023-04-13T05:16:36.189Z,5.15
2023-04-13T05:19:12.550Z,5.13
2023-04-13T05:21:53.724Z,5.12
2023-04-13T05:24:21.653Z,5.11
2023-04-13T05:26:48.991Z,5.11
2023-04-13T05:29:21.128Z,5.12
2023-04-13T05:31:48.513Z,5.16
2023-04-13T05:34:16.466Z,5.19
2023-04-13T05:36:55.611Z,5.24
2023-04-13T05:39:22.079Z,5.27
2023-04-13T05:41:48.537Z,5.34
2023-04-13T05:44:16.310Z,5.37
2023-04-13T05:46:42.890Z,5.40
2023-04-13T05:49:10.590Z,5.44
2023-04-13T05:51:38.211Z,5.49
2023-04-13T05:54:04.926Z,5.52
2023-04-13T05:56:34.147Z,5.53
2023-04-13T05:59:01.125Z,5.56
2023-04-13T06:01:29.594Z,5.61
2023-04-13T06:03:56.543Z,5.68
2023-04-13T06:06:24.852Z,5.70
2023-04-13T06:08:52.971Z,5.78
2023-04-13T06:11:20.851Z,5.81
2023-04-13T06:13:47.257Z,5.83
2023-04-13T06:16:13.715Z,5.80
2023-04-13T06:18:40.279Z,5.89
2023-04-13T06:21:07.078Z,5.92
2023-04-13T06:23:34.233Z,5.99
2023-04-13T06:26:06.058Z,6.01
2023-04-13T06:28:45.010Z,6.04
2023-04-13T06:31:13.666Z,6.08
2023-04-13T06:33:41.560Z,6.15
2023-04-13T06:36:09.243Z,6.17
2023-04-13T06:38:36.290Z,6.20
2023-04-13T06:41:07.434Z,6.26
2023-04-13T06:43:37.682Z,6.28
2023-04-13T06:46:15.930Z,6.26
2023-04-13T06:48:46.558Z,6.31
2023-04-13T06:51:14.696Z,6.35
2023-04-13T06:53:42.079Z,6.37
2023-04-13T06:56:08.694Z,6.38
2023-04-13T06:58:36.645Z,6.47
2023-04-13T07:01:04.341Z,6.49
2023-04-13T07:03:34.060Z,6.44
2023-04-13T07:06:02.572Z,6.41
2023-04-13T07:08:29.230Z,6.40
2023-04-13T07:10:55.762Z,6.43
2023-04-13T07:13:30.529Z,6.51
2023-04-13T07:15:57.023Z,6.56
2023-04-13T07:18:23.535Z,6.54
2023-04-13T07:20:49.954Z,6.52
2023-04-13T07:23:19.309Z,6.57
2023-04-13T07:25:45.874Z,6.62
2023-04-13T07:28:20.745Z,6.59
2023-04-13T07:30:50.507Z,6.61
2023-04-13T07:33:17.315Z,6.60
2023-04-13T07:35:44.065Z,6.40
2023-04-13T07:38:12.062Z,6.53
2023-04-13T07:40:38.686Z,6.55
2023-04-13T07:43:10.206Z,6.54
2023-04-13T07:45:39.510Z,6.56
2023-04-13T07:48:06.994Z,6.64
2023-04-13T07:50:42.552Z,6.78
2023-04-13T07:53:12.732Z,6.89
2023-04-13T07:55:40.562Z,6.92
2023-04-13T07:58:07.820Z,7.01
2023-04-13T08:00:34.309Z,7.08
2023-04-13T08:03:03.715Z,7.16
2023-04-13T08:05:32.063Z,7.14
2023-04-13T08:07:58.590Z,7.17
2023-04-13T08:10:25.144Z,7.24
2023-04-13T08:12:53.675Z,7.30
2023-04-13T08:15:21.594Z,7.34
2023-04-13T08:17:48.971Z,7.41
2023-04-13T08:20:17.361Z,7.49
2023-04-13T08:22:45.886Z,7.56
2023-04-13T08:25:12.296Z,7.72
2023-04-13T08:27:38.756Z,7.86
2023-04-13T08:30:07.459Z,7.92
2023-04-13T08:32:44.064Z,7.97
2023-04-13T08:35:11.635Z,7.94
2023-04-13T08:37:39.828Z,7.88
2023-04-13T08:40:11.867Z,7.81
2023-04-13T08:42:39.837Z,7.67
2023-04-13T08:45:07.619Z,7.54
2023-04-13T08:47:34.696Z,7.45
2023-04-13T08:50:02.830Z,7.33
2023-04-13T08:52:42.521Z,7.25
2023-04-13T08:55:09.266Z,7.23
2023-04-13T08:57:38.392Z,7.24
2023-04-13T09:00:12.616Z,7.25
2023-04-13T09:02:49.322Z,7.28
2023-04-13T09:05:28.651Z,7.34
2023-04-13T09:08:04.199Z,7.40
2023-04-13T09:10:30.865Z,7.48
2023-04-13T09:12:57.374Z,7.60
2023-04-13T09:15:24.381Z,7.67
2023-04-13T09:18:17.249Z,7.67
2023-04-13T09:20:59.863Z,7.67
2023-04-13T09:23:26.609Z,7.76
2023-04-13T09:26:04.818Z,7.84
2023-04-13T09:28:31.492Z,7.93
2023-04-13T09:31:05.442Z,8.04
2023-04-13T09:33:47.088Z,8.14
2023-04-13T09:36:15.408Z,8.10
2023-04-13T09:38:50.458Z,8.19
2023-04-13T09:41:16.972Z,8.32
2023-04-13T09:43:43.408Z,8.48
2023-04-13T09:46:14.149Z,8.64
2023-04-13T09:48:58.822Z,8.75
2023-04-13T09:51:27.452Z,8.82
2023-04-13T09:53:54.528Z,8.88
2023-04-13T09:56:21.204Z,8.93
2023-04-13T09:58:47.841Z,8.86
2023-04-13T10:01:17.224Z,8.80
2023-04-13T10:03:44.479Z,8.78
2023-04-13T10:06:11.042Z,8.80
2023-04-13T10:08:39.186Z,8.75
2023-04-13T10:11:13.265Z,8.69
2023-04-13T10:13:50.962Z,8.66
2023-04-13T10:16:36.501Z,8.69
2023-04-13T10:19:17.879Z,8.72
2023-04-13T10:21:47.731Z,8.74
2023-04-13T10:24:15.285Z,8.88
2023-04-13T10:26:44.059Z,9.12
2023-04-13T10:29:13.379Z,9.25
2023-04-13T10:31:41.961Z,9.20
2023-04-13T10:34:09.713Z,9.21
2023-04-13T10:36:44.212Z,9.36
2023-04-13T10:39:11.253Z,9.59
2023-04-13T10:41:38.513Z,9.96
2023-04-13T10:44:07.758Z,10.29
2023-04-13T10:46:35.641Z,10.29
2023-04-13T10:49:03.724Z,10.11
2023-04-13T10:51:43.420Z,9.81
2023-04-13T10:54:12.387Z,9.57
2023-04-13T10:56:40.080Z,9.27
2023-04-13T10:59:07.002Z,9.06
2023-04-13T11:01:35.715Z,8.84
2023-04-13T11:04:06.475Z,8.70
2023-04-13T11:06:39.338Z,8.52
2023-04-13T11:09:07.066Z,8.37
2023-04-13T11:11:36.545Z,8.20
2023-04-13T11:14:03.670Z,8.16
2023-04-13T11:16:30.217Z,8.12
2023-04-13T11:19:04.091Z,8.02
2023-04-13T11:21:31.756Z,7.96
2023-04-13T11:24:02.224Z,8.01
2023-04-13T11:26:38.223Z,8.05
2023-04-13T11:29:05.140Z,8.11
2023-04-13T11:31:41.920Z,8.18
2023-04-13T11:34:11.022Z,8.24
2023-04-13T11:36:40.383Z,8.30
2023-04-13T11:39:10.867Z,8.51
2023-04-13T11:41:41.556Z,8.82
2023-04-13T11:44:08.045Z,9.08
2023-04-13T11:46:34.573Z,9.29
2023-04-13T11:49:01.765Z,9.40
2023-04-13T11:51:28.735Z,9.36
2023-04-13T11:53:55.408Z,9.57
2023-04-13T11:56:22.099Z,9.69
2023-04-13T11:58:51.430Z,9.72
2023-04-13T12:01:25.023Z,9.82
2023-04-13T12:04:01.472Z,9.92
2023-04-13T12:06:35.297Z,9.93
2023-04-13T12:09:10.092Z,9.94
2023-04-13T12:11:48.599Z,9.90
2023-04-13T12:14:45.968Z,9.87
2023-04-13T12:19:46.234Z,9.62
2023-04-13T12:22:14.660Z,9.60
2023-04-13T12:24:42.788Z,9.73
2023-04-13T12:27:18.558Z,9.92
2023-04-13T12:29:45.905Z,10.00
2023-04-13T12:32:17.089Z,9.94
2023-04-13T12:34:44.721Z,10.00
2023-04-13T12:37:11.659Z,10.01
2023-04-13T12:39:38.223Z,10.07
2023-04-13T12:42:05.242Z,10.24
2023-04-13T12:44:33.750Z,10.44
2023-04-13T12:47:01.076Z,10.62
2023-04-13T12:49:27.638Z,10.68
2023-04-13T12:51:54.080Z,10.84
2023-04-13T12:54:20.667Z,11.02
2023-04-13T12:56:47.564Z,11.14
2023-04-13T12:59:14.075Z,11.17
2023-04-13T13:01:40.770Z,11.23
2023-04-13T13:04:07.422Z,11.20
2023-04-13T13:06:34.271Z,11.13
2023-04-13T13:09:01.233Z,11.20
2023-04-13T13:11:28.258Z,11.21
2023-04-13T13:13:54.895Z,11.34
2023-04-13T13:16:21.388Z,11.53
2023-04-13T13:18:51.340Z,11.53
2023-04-13T13:21:18.692Z,11.49
2023-04-13T13:23:45.550Z,11.29
2023-04-13T13:28:42.372Z,10.82
2023-04-13T13:31:09.078Z,10.61
2023-04-13T13:33:36.283Z,10.48
2023-04-13T13:36:02.736Z,10.39
2023-04-13T13:38:29.278Z,10.24
2023-04-13T13:40:56.031Z,10.15
2023-04-13T13:43:22.570Z,10.06
2023-04-13T13:45:49.070Z,10.00
2023-04-13T13:48:16.592Z,10.00
2023-04-13T13:50:50.887Z,9.95
2023-04-13T13:53:17.904Z,9.79
2023-04-13T13:55:45.110Z,9.64
2023-04-13T13:58:11.604Z,9.45
2023-04-13T14:00:38.217Z,9.26
2023-04-13T14:03:04.696Z,9.07
2023-04-13T14:05:31.974Z,8.87
2023-04-13T14:07:58.435Z,8.63
2023-04-13T14:10:25.152Z,8.39
2023-04-13T14:12:52.667Z,8.25
2023-04-13T14:15:19.476Z,8.16
2023-04-13T14:17:55.417Z,8.04
2023-04-13T14:20:28.824Z,8.02
2023-04-13T14:22:56.881Z,7.99
2023-04-13T14:25:23.579Z,8.03
2023-04-13T14:27:50.356Z,8.08
2023-04-13T14:30:19.432Z,8.08
2023-04-13T14:32:49.384Z,7.99
2023-04-13T14:35:16.167Z,7.91
2023-04-13T14:37:42.634Z,7.89
2023-04-13T14:40:14.379Z,7.86
2023-04-13T14:42:41.150Z,8.00
2023-04-13T14:45:11.173Z,8.04
2023-04-13T14:47:38.783Z,8.15
2023-04-13T14:50:05.993Z,8.13
2023-04-13T14:52:32.409Z,8.05
2023-04-13T14:54:58.834Z,7.97
2023-04-13T14:57:26.968Z,7.95
2023-04-13T14:59:55.684Z,7.99
2023-04-13T15:02:23.045Z,7.97
2023-04-13T15:04:49.649Z,7.99
2023-04-13T15:07:16.229Z,8.01
2023-04-13T15:09:42.607Z,8.04
2023-04-13T15:12:12.657Z,8.05
2023-04-13T15:14:40.570Z,8.12
2023-04-13T15:17:08.333Z,8.18
2023-04-13T15:19:34.773Z,8.23
2023-04-13T15:22:01.181Z,8.24
2023-04-13T15:24:27.623Z,8.28
2023-04-13T15:26:54.220Z,8.37
2023-04-13T15:29:21.019Z,8.43
2023-04-13T15:31:47.545Z,8.47
2023-04-13T15:34:14.030Z,8.50
2023-04-13T15:36:40.479Z,8.57
2023-04-13T15:39:06.898Z,8.57
2023-04-13T15:41:33.318Z,8.60
2023-04-13T15:44:00.327Z,8.65
2023-04-13T15:46:27.575Z,8.69
2023-04-13T15:48:54.834Z,8.68
2023-04-13T15:51:21.938Z,8.70
2023-04-13T15:53:48.598Z,8.72
2023-04-13T15:56:15.065Z,8.82
2023-04-13T15:58:41.704Z,8.87
2023-04-13T16:01:10.071Z,8.96
2023-04-13T16:03:36.990Z,9.01
2023-04-13T16:06:03.746Z,8.99
2023-04-13T16:08:30.206Z,8.96
2023-04-13T16:10:56.979Z,8.87
2023-04-13T16:13:23.525Z,8.77
2023-04-13T16:15:55.579Z,8.71
2023-04-13T16:18:32.233Z,8.77
2023-04-13T16:21:02.238Z,8.81
2023-04-13T16:23:29.316Z,8.90
2023-04-13T16:25:55.911Z,9.08
2023-04-13T16:28:22.395Z,9.35
2023-04-13T16:30:49.408Z,9.56
2023-04-13T16:33:15.998Z,9.69
2023-04-13T16:35:42.466Z,9.74
2023-04-13T16:38:08.902Z,9.71
2023-04-13T16:40:35.893Z,9.66
2023-04-13T16:43:04.060Z,9.55
2023-04-13T16:45:30.542Z,9.42
2023-04-13T16:47:56.994Z,9.25
2023-04-13T16:50:28.475Z,9.07
2023-04-13T16:52:56.495Z,8.88
2023-04-13T16:55:23.054Z,8.79
2023-04-13T16:57:50.683Z,8.73
2023-04-13T17:00:18.040Z,8.68
2023-04-13T17:02:44.679Z,8.50
2023-04-13T17:05:12.443Z,8.34
2023-04-13T17:07:40.472Z,8.23
2023-04-13T17:10:07.754Z,8.14
2023-04-13T17:12:34.899Z,8.06
2023-04-13T17:15:01.320Z,7.98
2023-04-13T17:17:28.453Z,7.92
2023-04-13T17:19:54.988Z,7.86
2023-04-13T17:22:22.388Z,7.80
2023-04-13T17:24:49.374Z,7.70
2023-04-13T17:27:16.465Z,7.67
2023-04-13T17:29:42.924Z,7.67
2023-04-13T17:32:09.518Z,7.63
2023-04-13T17:34:36.003Z,7.62
2023-04-13T17:37:02.402Z,7.60
2023-04-13T17:39:29.169Z,7.55
2023-04-13T17:41:56.239Z,7.50
2023-04-13T17:44:22.676Z,7.46
2023-04-13T17:46:50.196Z,7.45
2023-04-13T17:49:16.643Z,7.44
2023-04-13T17:51:49.799Z,7.45
2023-04-13T17:54:16.279Z,7.44
2023-04-13T17:56:42.870Z,7.44
2023-04-13T17:59:13.127Z,7.43
2023-04-13T18:01:42.048Z,7.41
2023-04-13T18:04:13.418Z,7.39
2023-04-13T18:06:40.345Z,7.38
2023-04-13T18:09:08.805Z,7.34
2023-04-13T18:11:35.654Z,7.29
2023-04-13T18:14:02.991Z,7.24
2023-04-13T18:16:31.703Z,7.21
2023-04-13T18:19:01.674Z,7.17
2023-04-13T18:21:28.078Z,7.08
2023-04-13T18:23:54.531Z,7.03
2023-04-13T18:26:22.535Z,6.97
2023-04-13T18:28:49.062Z,6.93
2023-04-13T18:31:15.600Z,6.88
2023-04-13T18:33:42.002Z,6.88
2023-04-13T18:36:08.382Z,6.86
2023-04-13T18:38:35.011Z,6.87
2023-04-13T18:41:01.617Z,6.86
2023-04-13T18:43:28.020Z,6.86
2023-04-13T18:45:54.464Z,6.85
2023-04-13T18:48:20.949Z,6.79
2023-04-13T18:50:48.269Z,6.81
2023-04-13T18:53:14.757Z,6.78
2023-04-13T18:55:41.172Z,6.75
2023-04-13T18:58:07.713Z,6.71
2023-04-13T19:00:34.144Z,6.72
2023-04-13T19:03:00.672Z,6.71
2023-04-13T19:05:27.766Z,6.71
2023-04-13T19:07:58.501Z,6.65
2023-04-13T19:10:26.498Z,6.69
2023-04-13T19:12:52.941Z,6.68
2023-04-13T19:15:19.903Z,6.67
2023-04-13T19:17:47.244Z,6.64
2023-04-13T19:20:14.394Z,6.66
2023-04-13T19:22:40.899Z,6.66
2023-04-13T19:25:13.951Z,6.70
2023-04-13T19:27:45.496Z,6.69
2023-04-13T19:30:13.686Z,6.71
2023-04-13T19:32:41.937Z,6.71
2023-04-13T19:35:10.093Z,6.67
2023-04-13T19:37:37.915Z,6.60
2023-04-13T19:40:09.662Z,6.58
2023-04-13T19:42:37.059Z,6.54
2023-04-13T19:45:04.253Z,6.56
2023-04-13T19:47:32.024Z,6.55
2023-04-13T19:49:58.530Z,6.55
2023-04-13T19:52:25.270Z,6.56
2023-04-13T19:54:51.987Z,6.55
2023-04-13T19:57:18.687Z,6.50
2023-04-13T19:59:45.236Z,6.48
2023-04-13T20:02:11.709Z,6.41
2023-04-13T20:04:38.622Z,6.39
2023-04-13T20:07:05.608Z,6.35
2023-04-13T20:09:33.206Z,6.31
2023-04-13T20:11:59.632Z,6.25
2023-04-13T20:14:26.356Z,6.22
2023-04-13T20:16:52.936Z,6.20
2023-04-13T20:19:20.227Z,6.18
2023-04-13T20:21:46.768Z,6.16
2023-04-13T20:24:13.249Z,6.12
2023-04-13T20:26:40.038Z,6.07
2023-04-13T20:29:06.698Z,6.06
2023-04-13T20:31:33.333Z,5.99
2023-04-13T20:34:00.316Z,6.00
2023-04-13T20:36:27.169Z,5.96
2023-04-13T20:38:54.982Z,5.87
2023-04-13T20:41:21.882Z,5.84
2023-04-13T20:43:50.634Z,5.81
2023-04-13T20:46:17.129Z,5.77
2023-04-13T20:51:13.287Z,5.75
2023-04-13T20:53:39.709Z,5.75
2023-04-13T20:56:09.214Z,5.78
2023-04-13T20:58:37.318Z,5.78
2023-04-13T21:01:04.602Z,5.76
2023-04-13T21:03:32.003Z,5.75
2023-04-13T21:05:59.370Z,5.74
2023-04-13T21:08:27.266Z,5.74
2023-04-13T21:10:53.693Z,5.73
2023-04-13T21:13:20.295Z,5.69
2023-04-13T21:15:46.958Z,5.63
2023-04-13T21:18:13.423Z,5.65
2023-04-13T21:20:42.053Z,5.66
2023-04-13T21:23:08.505Z,5.65
2023-04-13T21:25:36.356Z,5.66
2023-04-13T21:28:03.110Z,5.64
2023-04-13T21:30:29.631Z,5.64
2023-04-13T21:32:56.136Z,5.63
2023-04-13T21:35:22.653Z,5.63
2023-04-13T21:37:49.042Z,5.60
2023-04-13T21:40:16.295Z,5.59
2023-04-13T21:42:42.710Z,5.58
2023-04-13T21:45:09.504Z,5.56
2023-04-13T21:47:35.985Z,5.45
2023-04-13T21:50:02.397Z,5.48
2023-04-13T21:52:29.013Z,5.45
2023-04-13T21:54:55.827Z,5.46
2023-04-13T21:57:22.270Z,5.49
2023-04-13T21:59:48.671Z,5.48
2023-04-13T22:02:15.846Z,5.46
2023-04-13T22:04:42.326Z,5.47
2023-04-13T22:07:08.794Z,5.46
2023-04-13T22:09:35.707Z,5.46
2023-04-13T22:12:02.211Z,5.51
2023-04-13T22:14:28.694Z,5.50
2023-04-13T22:16:56.151Z,5.50
2023-04-13T22:19:22.619Z,5.50
2023-04-13T22:21:49.019Z,5.50
2023-04-13T22:24:16.055Z,5.51
2023-04-13T22:26:42.534Z,5.50
2023-04-13T22:29:09.036Z,5.48
2023-04-13T22:31:35.788Z,5.46
2023-04-13T22:34:02.224Z,5.43
2023-04-13T22:36:28.666Z,5.41
2023-04-13T22:38:55.325Z,5.40
2023-04-13T22:41:21.880Z,5.44
2023-04-13T22:43:48.274Z,5.42
2023-04-13T22:46:14.903Z,5.37
2023-04-13T22:48:41.361Z,5.34
2023-04-13T22:51:07.822Z,5.34
2023-04-13T22:53:34.250Z,5.28
2023-04-13T22:56:01.013Z,5.26
2023-04-13T22:58:27.777Z,5.25
2023-04-13T23:00:54.343Z,5.24
2023-04-13T23:03:21.428Z,5.26
2023-04-13T23:05:48.131Z,5.26
2023-04-13T23:08:14.563Z,5.29
2023-04-13T23:10:41.114Z,5.32
2023-04-13T23:13:07.676Z,5.29
2023-04-13T23:15:34.267Z,5.29
2023-04-13T23:18:02.517Z,5.31
2023-04-13T23:20:29.385Z,5.33
2023-04-13T23:22:55.878Z,5.35
2023-04-13T23:25:22.337Z,5.34
2023-04-13T23:27:48.727Z,5.40
2023-04-13T23:30:16.092Z,5.41
2023-04-13T23:32:42.537Z,5.40
2023-04-13T23:35:09.169Z,5.41
2023-04-13T23:37:35.577Z,5.41
2023-04-13T23:40:02.059Z,5.41
2023-04-13T23:42:28.588Z,5.39
2023-04-13T23:44:55.306Z,5.42
2023-04-13T23:47:22.240Z,5.44
2023-04-13T23:49:48.807Z,5.45
2023-04-13T23:52:15.219Z,5.48
2023-04-13T23:54:41.673Z,5.47
2023-04-13T23:57:09.676Z,5.43
2023-04-13T23:59:36.091Z,5.43
